Time;durP1;ratioP1;P1;durP2;ratioP2;P2;SDS_P1;SDS_P2;PMS_P1;PMS_P2;Temp;Humidity;BMP_temperature;BMP_pressure;BME280_temperature;BME280_humidity;BME280_pressure;Samples;Min_cycle;Max_cycle;Signal;HPM_P1;HPM_P2
2021/09/29 00:00:01;;;;;;;21.95;19.65;;;;;;;14.72;94.71875;95397;;;;
2021/09/29 00:01:07;;;;;;;21.95;19.65;;;;;;;14.72;94.71875;95397;;;;
2021/09/29 00:02:08;;;;;;;21.95;19.65;;;;;;;14.72;94.71875;95397;;;;
2021/09/29 00:03:08;;;;;;;21.95;19.65;;;;;;;14.72;94.71875;95397;;;;
2021/09/29 00:04:08;;;;;;;21.95;19.65;;;;;;;14.72;94.71875;95397;;;;
2021/09/29 00:05:09;;;;;;;21.95;19.65;;;;;;;14.72;94.71875;95397;;;;
2021/09/29 00:06:10;;;;;;;21.95;19.65;;;;;;;14.72;94.71875;95397;;;;
2021/09/29 00:07:10;;;;;;;19.4;17.45;;;;;;;14.76;95.10254;95385.89;;;;
2021/09/29 00:08:11;;;;;;;19.4;17.45;;;;;;;14.76;95.10254;95385.89;;;;
2021/09/29 00:09:12;;;;;;;19.4;17.45;;;;;;;14.76;95.10254;95385.89;;;;
2021/09/29 00:10:12;;;;;;;19.4;17.45;;;;;;;14.76;95.10254;95385.89;;;;
2021/09/29 00:11:13;;;;;;;19.4;17.45;;;;;;;14.76;95.10254;95385.89;;;;
2021/09/29 00:12:13;;;;;;;19.4;17.45;;;;;;;14.76;95.10254;95385.89;;;;
2021/09/29 00:13:14;;;;;;;19.4;17.45;;;;;;;14.76;95.10254;95385.89;;;;
2021/09/29 00:14:14;;;;;;;19.4;17.45;;;;;;;14.76;95.10254;95385.89;;;;
2021/09/29 00:15:15;;;;;;;19.4;17.45;;;;;;;14.76;95.10254;95385.89;;;;
2021/09/29 00:16:17;;;;;;;19.4;17.45;;;;;;;14.76;95.10254;95385.89;;;;
2021/09/29 00:17:17;;;;;;;19.4;17.45;;;;;;;14.76;95.10254;95385.89;;;;
2021/09/29 00:18:18;;;;;;;19;17.25;;;;;;;14.78;95.46289;95391.78;;;;
2021/09/29 00:19:19;;;;;;;19;17.25;;;;;;;14.78;95.46289;95391.78;;;;
2021/09/29 00:20:20;;;;;;;19;17.25;;;;;;;14.78;95.46289;95391.78;;;;
2021/09/29 00:21:21;;;;;;;19;17.25;;;;;;;14.78;95.46289;95391.78;;;;
2021/09/29 00:22:21;;;;;;;19;17.25;;;;;;;14.78;95.46289;95391.78;;;;
2021/09/29 00:23:21;;;;;;;19;17.25;;;;;;;14.78;95.46289;95391.78;;;;
2021/09/29 00:24:22;;;;;;;19;17.25;;;;;;;14.78;95.46289;95391.78;;;;
2021/09/29 00:25:22;;;;;;;19;17.25;;;;;;;14.78;95.46289;95391.78;;;;
2021/09/29 00:26:23;;;;;;;19;17.25;;;;;;;14.78;95.46289;95391.78;;;;
2021/09/29 00:27:24;;;;;;;19;17.25;;;;;;;14.78;95.46289;95391.78;;;;
2021/09/29 00:28:24;;;;;;;19;17.25;;;;;;;14.78;95.46289;95391.78;;;;
2021/09/29 00:29:25;;;;;;;17.35;15.3;;;;;;;14.73;95.88086;95380.45;;;;
2021/09/29 00:30:25;;;;;;;17.35;15.3;;;;;;;14.73;95.88086;95380.45;;;;
2021/09/29 00:31:33;;;;;;;17.35;15.3;;;;;;;14.73;95.88086;95380.45;;;;
2021/09/29 00:32:34;;;;;;;17.35;15.3;;;;;;;14.73;95.88086;95380.45;;;;
2021/09/29 00:33:38;;;;;;;17.35;15.3;;;;;;;14.73;95.88086;95380.45;;;;
2021/09/29 00:34:39;;;;;;;17.35;15.3;;;;;;;14.73;95.88086;95380.45;;;;
2021/09/29 00:35:40;;;;;;;17.35;15.3;;;;;;;14.73;95.88086;95380.45;;;;
2021/09/29 00:36:40;;;;;;;17.35;15.3;;;;;;;14.73;95.88086;95380.45;;;;
2021/09/29 00:37:44;;;;;;;17.35;15.3;;;;;;;14.73;95.88086;95380.45;;;;
2021/09/29 00:38:44;;;;;;;17.35;15.3;;;;;;;14.73;95.88086;95380.45;;;;
2021/09/29 00:39:45;;;;;;;17.7;15.9;;;;;;;14.67;96.36133;95384.61;;;;
2021/09/29 00:40:45;;;;;;;17.7;15.9;;;;;;;14.67;96.36133;95384.61;;;;
2021/09/29 00:41:46;;;;;;;17.7;15.9;;;;;;;14.67;96.36133;95384.61;;;;
2021/09/29 00:42:47;;;;;;;17.7;15.9;;;;;;;14.67;96.36133;95384.61;;;;
2021/09/29 00:43:47;;;;;;;17.7;15.9;;;;;;;14.67;96.36133;95384.61;;;;
2021/09/29 00:44:50;;;;;;;17.7;15.9;;;;;;;14.67;96.36133;95384.61;;;;
2021/09/29 00:45:51;;;;;;;17.7;15.9;;;;;;;14.67;96.36133;95384.61;;;;
2021/09/29 00:46:52;;;;;;;17.7;15.9;;;;;;;14.67;96.36133;95384.61;;;;
2021/09/29 00:47:52;;;;;;;17.7;15.9;;;;;;;14.67;96.36133;95384.61;;;;
2021/09/29 00:48:53;;;;;;;17.7;15.9;;;;;;;14.67;96.36133;95384.61;;;;
2021/09/29 00:49:53;;;;;;;20.95;18.75;;;;;;;14.63;96.87695;95385.78;;;;
2021/09/29 00:50:54;;;;;;;20.95;18.75;;;;;;;14.63;96.87695;95385.78;;;;
2021/09/29 00:51:54;;;;;;;20.95;18.75;;;;;;;14.63;96.87695;95385.78;;;;
2021/09/29 00:52:56;;;;;;;20.95;18.75;;;;;;;14.63;96.87695;95385.78;;;;
2021/09/29 00:53:58;;;;;;;20.95;18.75;;;;;;;14.63;96.87695;95385.78;;;;
2021/09/29 00:55:00;;;;;;;20.95;18.75;;;;;;;14.63;96.87695;95385.78;;;;
2021/09/29 00:56:01;;;;;;;20.95;18.75;;;;;;;14.63;96.87695;95385.78;;;;
2021/09/29 00:57:02;;;;;;;20.95;18.75;;;;;;;14.63;96.87695;95385.78;;;;
2021/09/29 00:58:03;;;;;;;20.95;18.75;;;;;;;14.63;96.87695;95385.78;;;;
2021/09/29 00:59:04;;;;;;;20.95;18.75;;;;;;;14.63;96.87695;95385.78;;;;
2021/09/29 01:00:05;;;;;;;20.95;18.75;;;;;;;14.63;96.87695;95385.78;;;;
2021/09/29 01:01:08;;;;;;;24.05;21.4;;;;;;;14.65;97.19434;95368.16;;;;
2021/09/29 01:02:09;;;;;;;24.05;21.4;;;;;;;14.65;97.19434;95368.16;;;;
2021/09/29 01:03:09;;;;;;;24.05;21.4;;;;;;;14.65;97.19434;95368.16;;;;
2021/09/29 01:04:10;;;;;;;24.05;21.4;;;;;;;14.65;97.19434;95368.16;;;;
2021/09/29 01:05:11;;;;;;;24.05;21.4;;;;;;;14.65;97.19434;95368.16;;;;
2021/09/29 01:06:12;;;;;;;24.05;21.4;;;;;;;14.65;97.19434;95368.16;;;;
2021/09/29 01:07:19;;;;;;;24.05;21.4;;;;;;;14.65;97.19434;95368.16;;;;
2021/09/29 01:08:24;;;;;;;24.05;21.4;;;;;;;14.65;97.19434;95368.16;;;;
2021/09/29 01:09:31;;;;;;;24.05;21.4;;;;;;;14.65;97.19434;95368.16;;;;
2021/09/29 01:10:38;;;;;;;24.05;21.4;;;;;;;14.65;97.19434;95368.16;;;;
2021/09/29 01:11:44;;;;;;;27;24.1;;;;;;;14.64;97.27832;95378.73;;;;
2021/09/29 01:12:51;;;;;;;27;24.1;;;;;;;14.64;97.27832;95378.73;;;;
2021/09/29 01:14:00;;;;;;;27;24.1;;;;;;;14.64;97.27832;95378.73;;;;
2021/09/29 01:15:08;;;;;;;27;24.1;;;;;;;14.64;97.27832;95378.73;;;;
2021/09/29 01:16:14;;;;;;;27;24.1;;;;;;;14.64;97.27832;95378.73;;;;
2021/09/29 01:17:15;;;;;;;27;24.1;;;;;;;14.64;97.27832;95378.73;;;;
2021/09/29 01:18:18;;;;;;;27;24.1;;;;;;;14.64;97.27832;95378.73;;;;
2021/09/29 01:19:22;;;;;;;27;24.1;;;;;;;14.64;97.27832;95378.73;;;;
2021/09/29 01:20:36;;;;;;;27;24.1;;;;;;;14.64;97.27832;95378.73;;;;
2021/09/29 01:21:41;;;;;;;27;24.1;;;;;;;14.64;97.27832;95378.73;;;;
2021/09/29 01:22:49;;;;;;;27.55;24.7;;;;;;;14.64;97.48047;95396.95;;;;
2021/09/29 01:24:04;;;;;;;27.55;24.7;;;;;;;14.64;97.48047;95396.95;;;;
2021/09/29 01:25:15;;;;;;;27.55;24.7;;;;;;;14.64;97.48047;95396.95;;;;
2021/09/29 01:26:22;;;;;;;27.55;24.7;;;;;;;14.64;97.48047;95396.95;;;;
2021/09/29 01:27:27;;;;;;;27.55;24.7;;;;;;;14.64;97.48047;95396.95;;;;
2021/09/29 01:28:30;;;;;;;27.55;24.7;;;;;;;14.64;97.48047;95396.95;;;;
2021/09/29 01:29:34;;;;;;;27.55;24.7;;;;;;;14.64;97.48047;95396.95;;;;
2021/09/29 01:30:36;;;;;;;27.55;24.7;;;;;;;14.64;97.48047;95396.95;;;;
2021/09/29 01:31:38;;;;;;;27.55;24.7;;;;;;;14.64;97.48047;95396.95;;;;
2021/09/29 01:32:39;;;;;;;28.05;25.05;;;;;;;14.62;97.73535;95395.83;;;;
2021/09/29 01:33:41;;;;;;;28.05;25.05;;;;;;;14.62;97.73535;95395.83;;;;
2021/09/29 01:34:43;;;;;;;28.05;25.05;;;;;;;14.62;97.73535;95395.83;;;;
2021/09/29 01:35:44;;;;;;;28.05;25.05;;;;;;;14.62;97.73535;95395.83;;;;
2021/09/29 01:36:45;;;;;;;28.05;25.05;;;;;;;14.62;97.73535;95395.83;;;;
2021/09/29 01:37:45;;;;;;;28.05;25.05;;;;;;;14.62;97.73535;95395.83;;;;
2021/09/29 01:38:49;;;;;;;28.05;25.05;;;;;;;14.62;97.73535;95395.83;;;;
2021/09/29 01:39:50;;;;;;;28.05;25.05;;;;;;;14.62;97.73535;95395.83;;;;
2021/09/29 01:40:51;;;;;;;28.05;25.05;;;;;;;14.62;97.73535;95395.83;;;;
2021/09/29 01:41:52;;;;;;;28.05;25.05;;;;;;;14.62;97.73535;95395.83;;;;
2021/09/29 01:42:52;;;;;;;28.05;25.05;;;;;;;14.62;97.73535;95395.83;;;;
2021/09/29 01:43:53;;;;;;;31.75;26.8;;;;;;;14.57;98.19434;95414.39;;;;
2021/09/29 01:44:54;;;;;;;31.75;26.8;;;;;;;14.57;98.19434;95414.39;;;;
2021/09/29 01:45:55;;;;;;;31.75;26.8;;;;;;;14.57;98.19434;95414.39;;;;
2021/09/29 01:46:55;;;;;;;31.75;26.8;;;;;;;14.57;98.19434;95414.39;;;;
2021/09/29 01:47:56;;;;;;;31.75;26.8;;;;;;;14.57;98.19434;95414.39;;;;
2021/09/29 01:48:57;;;;;;;31.75;26.8;;;;;;;14.57;98.19434;95414.39;;;;
2021/09/29 01:50:05;;;;;;;31.75;26.8;;;;;;;14.57;98.19434;95414.39;;;;
2021/09/29 01:51:08;;;;;;;31.75;26.8;;;;;;;14.57;98.19434;95414.39;;;;
2021/09/29 01:52:09;;;;;;;31.75;26.8;;;;;;;14.57;98.19434;95414.39;;;;
2021/09/29 01:53:11;;;;;;;31.75;26.8;;;;;;;14.57;98.19434;95414.39;;;;
2021/09/29 01:54:12;;;;;;;35.4;28.25;;;;;;;14.54;98.72461;95410.02;;;;
2021/09/29 01:55:17;;;;;;;35.4;28.25;;;;;;;14.54;98.72461;95410.02;;;;
2021/09/29 01:56:18;;;;;;;35.4;28.25;;;;;;;14.54;98.72461;95410.02;;;;
2021/09/29 01:57:19;;;;;;;35.4;28.25;;;;;;;14.54;98.72461;95410.02;;;;
2021/09/29 01:58:20;;;;;;;35.4;28.25;;;;;;;14.54;98.72461;95410.02;;;;
2021/09/29 01:59:21;;;;;;;35.4;28.25;;;;;;;14.54;98.72461;95410.02;;;;
2021/09/29 02:00:23;;;;;;;35.4;28.25;;;;;;;14.54;98.72461;95410.02;;;;
2021/09/29 02:01:23;;;;;;;35.4;28.25;;;;;;;14.54;98.72461;95410.02;;;;
2021/09/29 02:02:25;;;;;;;35.4;28.25;;;;;;;14.54;98.72461;95410.02;;;;
2021/09/29 02:03:26;;;;;;;35.4;28.25;;;;;;;14.54;98.72461;95410.02;;;;
2021/09/29 02:04:27;;;;;;;35.4;28.25;;;;;;;14.54;98.72461;95410.02;;;;
2021/09/29 02:05:28;;;;;;;32;26.95;;;;;;;14.51;99.10352;95424.02;;;;
2021/09/29 02:06:30;;;;;;;32;26.95;;;;;;;14.51;99.10352;95424.02;;;;
2021/09/29 02:07:42;;;;;;;32;26.95;;;;;;;14.51;99.10352;95424.02;;;;
2021/09/29 02:08:42;;;;;;;32;26.95;;;;;;;14.51;99.10352;95424.02;;;;
2021/09/29 02:09:43;;;;;;;32;26.95;;;;;;;14.51;99.10352;95424.02;;;;
2021/09/29 02:10:44;;;;;;;32;26.95;;;;;;;14.51;99.10352;95424.02;;;;
2021/09/29 02:11:44;;;;;;;32;26.95;;;;;;;14.51;99.10352;95424.02;;;;
2021/09/29 02:12:46;;;;;;;32;26.95;;;;;;;14.51;99.10352;95424.02;;;;
2021/09/29 02:13:46;;;;;;;32;26.95;;;;;;;14.51;99.10352;95424.02;;;;
2021/09/29 02:14:47;;;;;;;32;26.95;;;;;;;14.51;99.10352;95424.02;;;;
2021/09/29 02:15:48;;;;;;;34.64999;26.85;;;;;;;14.49;99.39941;95431.18;;;;
2021/09/29 02:16:48;;;;;;;34.64999;26.85;;;;;;;14.49;99.39941;95431.18;;;;
2021/09/29 02:17:52;;;;;;;34.64999;26.85;;;;;;;14.49;99.39941;95431.18;;;;
2021/09/29 02:18:53;;;;;;;34.64999;26.85;;;;;;;14.49;99.39941;95431.18;;;;
2021/09/29 02:19:53;;;;;;;34.64999;26.85;;;;;;;14.49;99.39941;95431.18;;;;
2021/09/29 02:20:54;;;;;;;34.64999;26.85;;;;;;;14.49;99.39941;95431.18;;;;
2021/09/29 02:21:54;;;;;;;34.64999;26.85;;;;;;;14.49;99.39941;95431.18;;;;
2021/09/29 02:22:55;;;;;;;34.64999;26.85;;;;;;;14.49;99.39941;95431.18;;;;
2021/09/29 02:23:56;;;;;;;34.64999;26.85;;;;;;;14.49;99.39941;95431.18;;;;
2021/09/29 02:24:57;;;;;;;34.64999;26.85;;;;;;;14.49;99.39941;95431.18;;;;
2021/09/29 02:25:57;;;;;;;36;29.2;;;;;;;14.47;99.7168;95420.15;;;;
2021/09/29 02:26:58;;;;;;;36;29.2;;;;;;;14.47;99.7168;95420.15;;;;
2021/09/29 02:27:58;;;;;;;36;29.2;;;;;;;14.47;99.7168;95420.15;;;;
2021/09/29 02:28:59;;;;;;;36;29.2;;;;;;;14.47;99.7168;95420.15;;;;
2021/09/29 02:30:00;;;;;;;36;29.2;;;;;;;14.47;99.7168;95420.15;;;;
2021/09/29 02:31:01;;;;;;;36;29.2;;;;;;;14.47;99.7168;95420.15;;;;
2021/09/29 02:32:01;;;;;;;36;29.2;;;;;;;14.47;99.7168;95420.15;;;;
2021/09/29 02:33:02;;;;;;;36;29.2;;;;;;;14.47;99.7168;95420.15;;;;
2021/09/29 02:34:03;;;;;;;36;29.2;;;;;;;14.47;99.7168;95420.15;;;;
2021/09/29 02:35:04;;;;;;;36;29.2;;;;;;;14.47;99.7168;95420.15;;;;
2021/09/29 02:36:07;;;;;;;36;29.2;;;;;;;14.47;99.7168;95420.15;;;;
2021/09/29 02:37:08;;;;;;;34.49999;28.45;;;;;;;14.47;99.68262;95427.06;;;;
2021/09/29 02:38:09;;;;;;;34.49999;28.45;;;;;;;14.47;99.68262;95427.06;;;;
2021/09/29 02:39:10;;;;;;;34.49999;28.45;;;;;;;14.47;99.68262;95427.06;;;;
2021/09/29 02:40:10;;;;;;;34.49999;28.45;;;;;;;14.47;99.68262;95427.06;;;;
2021/09/29 02:41:12;;;;;;;34.49999;28.45;;;;;;;14.47;99.68262;95427.06;;;;
2021/09/29 02:42:13;;;;;;;34.49999;28.45;;;;;;;14.47;99.68262;95427.06;;;;
2021/09/29 02:43:14;;;;;;;34.49999;28.45;;;;;;;14.47;99.68262;95427.06;;;;
2021/09/29 02:44:14;;;;;;;34.49999;28.45;;;;;;;14.47;99.68262;95427.06;;;;
2021/09/29 02:45:15;;;;;;;34.49999;28.45;;;;;;;14.47;99.68262;95427.06;;;;
2021/09/29 02:46:16;;;;;;;34.49999;28.45;;;;;;;14.47;99.68262;95427.06;;;;
2021/09/29 02:47:16;;;;;;;37.55;29.45;;;;;;;14.46;99.82227;95464.31;;;;
2021/09/29 02:48:17;;;;;;;37.55;29.45;;;;;;;14.46;99.82227;95464.31;;;;
2021/09/29 02:49:17;;;;;;;37.55;29.45;;;;;;;14.46;99.82227;95464.31;;;;
2021/09/29 02:50:18;;;;;;;37.55;29.45;;;;;;;14.46;99.82227;95464.31;;;;
2021/09/29 02:51:18;;;;;;;37.55;29.45;;;;;;;14.46;99.82227;95464.31;;;;
2021/09/29 02:52:19;;;;;;;37.55;29.45;;;;;;;14.46;99.82227;95464.31;;;;
2021/09/29 02:53:20;;;;;;;37.55;29.45;;;;;;;14.46;99.82227;95464.31;;;;
2021/09/29 02:54:20;;;;;;;37.55;29.45;;;;;;;14.46;99.82227;95464.31;;;;
2021/09/29 02:55:21;;;;;;;37.55;29.45;;;;;;;14.46;99.82227;95464.31;;;;
2021/09/29 02:56:22;;;;;;;37.55;29.45;;;;;;;14.46;99.82227;95464.31;;;;
2021/09/29 02:57:23;;;;;;;37.55;29.45;;;;;;;14.46;99.82227;95464.31;;;;
2021/09/29 02:58:23;;;;;;;41.1;29.45;;;;;;;14.42;100;95462.75;;;;
2021/09/29 02:59:25;;;;;;;41.1;29.45;;;;;;;14.42;100;95462.75;;;;
2021/09/29 03:00:25;;;;;;;41.1;29.45;;;;;;;14.42;100;95462.75;;;;
2021/09/29 03:01:26;;;;;;;41.1;29.45;;;;;;;14.42;100;95462.75;;;;
2021/09/29 03:02:26;;;;;;;41.1;29.45;;;;;;;14.42;100;95462.75;;;;
2021/09/29 03:03:27;;;;;;;41.1;29.45;;;;;;;14.42;100;95462.75;;;;
2021/09/29 03:04:28;;;;;;;41.1;29.45;;;;;;;14.42;100;95462.75;;;;
2021/09/29 03:05:28;;;;;;;41.1;29.45;;;;;;;14.42;100;95462.75;;;;
2021/09/29 03:06:28;;;;;;;41.1;29.45;;;;;;;14.42;100;95462.75;;;;
2021/09/29 03:07:29;;;;;;;41.1;29.45;;;;;;;14.42;100;95462.75;;;;
2021/09/29 03:08:29;;;;;;;41.1;29.45;;;;;;;14.42;100;95462.75;;;;
2021/09/29 03:09:30;;;;;;;41.85;30.05;;;;;;;14.45;100;95474.04;;;;
2021/09/29 03:10:30;;;;;;;41.85;30.05;;;;;;;14.45;100;95474.04;;;;
2021/09/29 03:11:31;;;;;;;41.85;30.05;;;;;;;14.45;100;95474.04;;;;
2021/09/29 03:12:32;;;;;;;41.85;30.05;;;;;;;14.45;100;95474.04;;;;
2021/09/29 03:13:32;;;;;;;41.85;30.05;;;;;;;14.45;100;95474.04;;;;
2021/09/29 03:14:32;;;;;;;41.85;30.05;;;;;;;14.45;100;95474.04;;;;
2021/09/29 03:15:33;;;;;;;41.85;30.05;;;;;;;14.45;100;95474.04;;;;
2021/09/29 03:16:34;;;;;;;41.85;30.05;;;;;;;14.45;100;95474.04;;;;
2021/09/29 03:17:34;;;;;;;41.85;30.05;;;;;;;14.45;100;95474.04;;;;
2021/09/29 03:18:35;;;;;;;41.85;30.05;;;;;;;14.45;100;95474.04;;;;
2021/09/29 03:19:35;;;;;;;43.15;29.3;;;;;;;14.5;100;95479.55;;;;
2021/09/29 03:20:36;;;;;;;43.15;29.3;;;;;;;14.5;100;95479.55;;;;
2021/09/29 03:21:36;;;;;;;43.15;29.3;;;;;;;14.5;100;95479.55;;;;
2021/09/29 03:22:37;;;;;;;43.15;29.3;;;;;;;14.5;100;95479.55;;;;
2021/09/29 03:23:37;;;;;;;43.15;29.3;;;;;;;14.5;100;95479.55;;;;
2021/09/29 03:24:38;;;;;;;43.15;29.3;;;;;;;14.5;100;95479.55;;;;
2021/09/29 03:25:38;;;;;;;43.15;29.3;;;;;;;14.5;100;95479.55;;;;
2021/09/29 03:26:39;;;;;;;43.15;29.3;;;;;;;14.5;100;95479.55;;;;
2021/09/29 03:27:39;;;;;;;43.15;29.3;;;;;;;14.5;100;95479.55;;;;
2021/09/29 03:28:40;;;;;;;43.15;29.3;;;;;;;14.5;100;95479.55;;;;
2021/09/29 03:29:41;;;;;;;43.15;29.3;;;;;;;14.5;100;95479.55;;;;
2021/09/29 03:30:41;;;;;;;38.8;27.55;;;;;;;14.51;100;95487.86;;;;
2021/09/29 03:31:42;;;;;;;38.8;27.55;;;;;;;14.51;100;95487.86;;;;
2021/09/29 03:32:42;;;;;;;38.8;27.55;;;;;;;14.51;100;95487.86;;;;
2021/09/29 03:33:43;;;;;;;38.8;27.55;;;;;;;14.51;100;95487.86;;;;
2021/09/29 03:34:44;;;;;;;38.8;27.55;;;;;;;14.51;100;95487.86;;;;
2021/09/29 03:35:44;;;;;;;38.8;27.55;;;;;;;14.51;100;95487.86;;;;
2021/09/29 03:36:45;;;;;;;38.8;27.55;;;;;;;14.51;100;95487.86;;;;
2021/09/29 03:37:45;;;;;;;38.8;27.55;;;;;;;14.51;100;95487.86;;;;
2021/09/29 03:38:46;;;;;;;38.8;27.55;;;;;;;14.51;100;95487.86;;;;
2021/09/29 03:39:47;;;;;;;38.8;27.55;;;;;;;14.51;100;95487.86;;;;
2021/09/29 03:40:47;;;;;;;31.95;24.1;;;;;;;14.47;100;95469.18;;;;
2021/09/29 03:41:48;;;;;;;31.95;24.1;;;;;;;14.47;100;95469.18;;;;
2021/09/29 03:42:48;;;;;;;31.95;24.1;;;;;;;14.47;100;95469.18;;;;
2021/09/29 03:43:49;;;;;;;31.95;24.1;;;;;;;14.47;100;95469.18;;;;
2021/09/29 03:44:49;;;;;;;31.95;24.1;;;;;;;14.47;100;95469.18;;;;
2021/09/29 03:45:49;;;;;;;31.95;24.1;;;;;;;14.47;100;95469.18;;;;
2021/09/29 03:46:50;;;;;;;31.95;24.1;;;;;;;14.47;100;95469.18;;;;
2021/09/29 03:47:50;;;;;;;31.95;24.1;;;;;;;14.47;100;95469.18;;;;
2021/09/29 03:48:51;;;;;;;31.95;24.1;;;;;;;14.47;100;95469.18;;;;
2021/09/29 03:49:51;;;;;;;31.95;24.1;;;;;;;14.47;100;95469.18;;;;
2021/09/29 03:50:52;;;;;;;31.95;24.1;;;;;;;14.47;100;95469.18;;;;
2021/09/29 03:51:53;;;;;;;31.6;23.8;;;;;;;14.35;100;95480.2;;;;
2021/09/29 03:52:53;;;;;;;31.6;23.8;;;;;;;14.35;100;95480.2;;;;
2021/09/29 03:53:54;;;;;;;31.6;23.8;;;;;;;14.35;100;95480.2;;;;
2021/09/29 03:54:55;;;;;;;31.6;23.8;;;;;;;14.35;100;95480.2;;;;
2021/09/29 03:55:55;;;;;;;31.6;23.8;;;;;;;14.35;100;95480.2;;;;
2021/09/29 03:56:55;;;;;;;31.6;23.8;;;;;;;14.35;100;95480.2;;;;
2021/09/29 03:57:56;;;;;;;31.6;23.8;;;;;;;14.35;100;95480.2;;;;
2021/09/29 03:58:56;;;;;;;31.6;23.8;;;;;;;14.35;100;95480.2;;;;
2021/09/29 03:59:57;;;;;;;31.6;23.8;;;;;;;14.35;100;95480.2;;;;
2021/09/29 04:00:57;;;;;;;31.6;23.8;;;;;;;14.35;100;95480.2;;;;
2021/09/29 04:01:58;;;;;;;28.6;21.35;;;;;;;14.28;100;95481.47;;;;
2021/09/29 04:02:58;;;;;;;28.6;21.35;;;;;;;14.28;100;95481.47;;;;
2021/09/29 04:03:59;;;;;;;28.6;21.35;;;;;;;14.28;100;95481.47;;;;
2021/09/29 04:04:59;;;;;;;28.6;21.35;;;;;;;14.28;100;95481.47;;;;
2021/09/29 04:06:00;;;;;;;28.6;21.35;;;;;;;14.28;100;95481.47;;;;
2021/09/29 04:07:00;;;;;;;28.6;21.35;;;;;;;14.28;100;95481.47;;;;
2021/09/29 04:08:01;;;;;;;28.6;21.35;;;;;;;14.28;100;95481.47;;;;
2021/09/29 04:09:01;;;;;;;28.6;21.35;;;;;;;14.28;100;95481.47;;;;
2021/09/29 04:10:02;;;;;;;28.6;21.35;;;;;;;14.28;100;95481.47;;;;
2021/09/29 04:11:06;;;;;;;28.6;21.35;;;;;;;14.28;100;95481.47;;;;
2021/09/29 04:12:08;;;;;;;28.6;21.35;;;;;;;14.28;100;95481.47;;;;
2021/09/29 04:13:08;;;;;;;29.2;21.55;;;;;;;14.23;100;95479.47;;;;
2021/09/29 04:14:09;;;;;;;29.2;21.55;;;;;;;14.23;100;95479.47;;;;
2021/09/29 04:15:09;;;;;;;29.2;21.55;;;;;;;14.23;100;95479.47;;;;
2021/09/29 04:16:11;;;;;;;29.2;21.55;;;;;;;14.23;100;95479.47;;;;
2021/09/29 04:17:11;;;;;;;29.2;21.55;;;;;;;14.23;100;95479.47;;;;
2021/09/29 04:18:12;;;;;;;29.2;21.55;;;;;;;14.23;100;95479.47;;;;
2021/09/29 04:19:12;;;;;;;29.2;21.55;;;;;;;14.23;100;95479.47;;;;
2021/09/29 04:20:13;;;;;;;29.2;21.55;;;;;;;14.23;100;95479.47;;;;
2021/09/29 04:21:13;;;;;;;29.2;21.55;;;;;;;14.23;100;95479.47;;;;
2021/09/29 04:22:14;;;;;;;29.2;21.55;;;;;;;14.23;100;95479.47;;;;
2021/09/29 04:23:15;;;;;;;26.65;19.9;;;;;;;14.21;100;95482.17;;;;
2021/09/29 04:24:16;;;;;;;26.65;19.9;;;;;;;14.21;100;95482.17;;;;
2021/09/29 04:25:16;;;;;;;26.65;19.9;;;;;;;14.21;100;95482.17;;;;
2021/09/29 04:26:17;;;;;;;26.65;19.9;;;;;;;14.21;100;95482.17;;;;
2021/09/29 04:27:17;;;;;;;26.65;19.9;;;;;;;14.21;100;95482.17;;;;
2021/09/29 04:28:18;;;;;;;26.65;19.9;;;;;;;14.21;100;95482.17;;;;
2021/09/29 04:29:19;;;;;;;26.65;19.9;;;;;;;14.21;100;95482.17;;;;
2021/09/29 04:30:19;;;;;;;26.65;19.9;;;;;;;14.21;100;95482.17;;;;
2021/09/29 04:31:20;;;;;;;26.65;19.9;;;;;;;14.21;100;95482.17;;;;
2021/09/29 04:32:20;;;;;;;26.65;19.9;;;;;;;14.21;100;95482.17;;;;
2021/09/29 04:33:20;;;;;;;26.65;19.9;;;;;;;14.21;100;95482.17;;;;
2021/09/29 04:34:21;;;;;;;24.75;18.75;;;;;;;14.18;100;95485.78;;;;
2021/09/29 04:35:22;;;;;;;24.75;18.75;;;;;;;14.18;100;95485.78;;;;
2021/09/29 04:36:22;;;;;;;24.75;18.75;;;;;;;14.18;100;95485.78;;;;
2021/09/29 04:37:23;;;;;;;24.75;18.75;;;;;;;14.18;100;95485.78;;;;
2021/09/29 04:38:23;;;;;;;24.75;18.75;;;;;;;14.18;100;95485.78;;;;
2021/09/29 04:39:24;;;;;;;24.75;18.75;;;;;;;14.18;100;95485.78;;;;
2021/09/29 04:40:24;;;;;;;24.75;18.75;;;;;;;14.18;100;95485.78;;;;
2021/09/29 04:41:25;;;;;;;24.75;18.75;;;;;;;14.18;100;95485.78;;;;
2021/09/29 04:42:25;;;;;;;24.75;18.75;;;;;;;14.18;100;95485.78;;;;
2021/09/29 04:43:26;;;;;;;24.75;18.75;;;;;;;14.18;100;95485.78;;;;
2021/09/29 04:44:26;;;;;;;24.75;18.75;;;;;;;14.18;100;95485.78;;;;
2021/09/29 04:45:27;;;;;;;24.95;18.6;;;;;;;14.14;100;95491.31;;;;
2021/09/29 04:46:27;;;;;;;24.95;18.6;;;;;;;14.14;100;95491.31;;;;
2021/09/29 04:47:28;;;;;;;24.95;18.6;;;;;;;14.14;100;95491.31;;;;
2021/09/29 04:48:28;;;;;;;24.95;18.6;;;;;;;14.14;100;95491.31;;;;
2021/09/29 04:49:30;;;;;;;24.95;18.6;;;;;;;14.14;100;95491.31;;;;
2021/09/29 04:50:30;;;;;;;24.95;18.6;;;;;;;14.14;100;95491.31;;;;
2021/09/29 04:51:32;;;;;;;24.95;18.6;;;;;;;14.14;100;95491.31;;;;
2021/09/29 04:52:33;;;;;;;24.95;18.6;;;;;;;14.14;100;95491.31;;;;
2021/09/29 04:53:33;;;;;;;24.95;18.6;;;;;;;14.14;100;95491.31;;;;
2021/09/29 04:54:34;;;;;;;24.95;18.6;;;;;;;14.14;100;95491.31;;;;
2021/09/29 04:55:34;;;;;;;23.55;17.95;;;;;;;14.12;100;95496.73;;;;
2021/09/29 04:56:36;;;;;;;23.55;17.95;;;;;;;14.12;100;95496.73;;;;
2021/09/29 04:57:37;;;;;;;23.55;17.95;;;;;;;14.12;100;95496.73;;;;
2021/09/29 04:58:37;;;;;;;23.55;17.95;;;;;;;14.12;100;95496.73;;;;
2021/09/29 04:59:38;;;;;;;23.55;17.95;;;;;;;14.12;100;95496.73;;;;
2021/09/29 05:00:38;;;;;;;23.55;17.95;;;;;;;14.12;100;95496.73;;;;
2021/09/29 05:01:39;;;;;;;23.55;17.95;;;;;;;14.12;100;95496.73;;;;
2021/09/29 05:02:42;;;;;;;23.55;17.95;;;;;;;14.12;100;95496.73;;;;
2021/09/29 05:03:45;;;;;;;23.55;17.95;;;;;;;14.12;100;95496.73;;;;
2021/09/29 05:04:45;;;;;;;23.55;17.95;;;;;;;14.12;100;95496.73;;;;
2021/09/29 05:05:46;;;;;;;23.55;17.95;;;;;;;14.12;100;95496.73;;;;
2021/09/29 05:06:46;;;;;;;19.5;15.5;;;;;;;14.17;100;95505.88;;;;
2021/09/29 05:07:48;;;;;;;19.5;15.5;;;;;;;14.17;100;95505.88;;;;
2021/09/29 05:08:52;;;;;;;19.5;15.5;;;;;;;14.17;100;95505.88;;;;
2021/09/29 05:09:54;;;;;;;19.5;15.5;;;;;;;14.17;100;95505.88;;;;
2021/09/29 05:10:55;;;;;;;19.5;15.5;;;;;;;14.17;100;95505.88;;;;
2021/09/29 05:12:00;;;;;;;19.5;15.5;;;;;;;14.17;100;95505.88;;;;
2021/09/29 05:13:07;;;;;;;19.5;15.5;;;;;;;14.17;100;95505.88;;;;
2021/09/29 05:14:12;;;;;;;19.5;15.5;;;;;;;14.17;100;95505.88;;;;
2021/09/29 05:15:12;;;;;;;19.5;15.5;;;;;;;14.17;100;95505.88;;;;
2021/09/29 05:16:14;;;;;;;19.5;15.5;;;;;;;14.17;100;95505.88;;;;
2021/09/29 05:17:14;;;;;;;13.7;12.1;;;;;;;14.39;100;95516.25;;;;
2021/09/29 05:18:15;;;;;;;13.7;12.1;;;;;;;14.39;100;95516.25;;;;
2021/09/29 05:19:15;;;;;;;13.7;12.1;;;;;;;14.39;100;95516.25;;;;
2021/09/29 05:20:16;;;;;;;13.7;12.1;;;;;;;14.39;100;95516.25;;;;
2021/09/29 05:21:16;;;;;;;13.7;12.1;;;;;;;14.39;100;95516.25;;;;
2021/09/29 05:22:17;;;;;;;13.7;12.1;;;;;;;14.39;100;95516.25;;;;
2021/09/29 05:23:18;;;;;;;13.7;12.1;;;;;;;14.39;100;95516.25;;;;
2021/09/29 05:24:18;;;;;;;13.7;12.1;;;;;;;14.39;100;95516.25;;;;
2021/09/29 05:25:19;;;;;;;13.7;12.1;;;;;;;14.39;100;95516.25;;;;
2021/09/29 05:26:19;;;;;;;13.7;12.1;;;;;;;14.39;100;95516.25;;;;
2021/09/29 05:27:20;;;;;;;14.35;11.6;;;;;;;14.4;100;95521.42;;;;
2021/09/29 05:28:20;;;;;;;14.35;11.6;;;;;;;14.4;100;95521.42;;;;
2021/09/29 05:29:25;;;;;;;14.35;11.6;;;;;;;14.4;100;95521.42;;;;
2021/09/29 05:30:26;;;;;;;14.35;11.6;;;;;;;14.4;100;95521.42;;;;
2021/09/29 05:31:26;;;;;;;14.35;11.6;;;;;;;14.4;100;95521.42;;;;
2021/09/29 05:32:27;;;;;;;14.35;11.6;;;;;;;14.4;100;95521.42;;;;
2021/09/29 05:33:28;;;;;;;14.35;11.6;;;;;;;14.4;100;95521.42;;;;
2021/09/29 05:34:28;;;;;;;14.35;11.6;;;;;;;14.4;100;95521.42;;;;
2021/09/29 05:35:29;;;;;;;14.35;11.6;;;;;;;14.4;100;95521.42;;;;
2021/09/29 05:36:30;;;;;;;14.35;11.6;;;;;;;14.4;100;95521.42;;;;
2021/09/29 05:37:30;;;;;;;14.35;11.6;;;;;;;14.4;100;95521.42;;;;
2021/09/29 05:38:31;;;;;;;14.05;11.15;;;;;;;14.37;100;95523.83;;;;
2021/09/29 05:39:31;;;;;;;14.05;11.15;;;;;;;14.37;100;95523.83;;;;
2021/09/29 05:40:32;;;;;;;14.05;11.15;;;;;;;14.37;100;95523.83;;;;
2021/09/29 05:41:32;;;;;;;14.05;11.15;;;;;;;14.37;100;95523.83;;;;
2021/09/29 05:42:33;;;;;;;14.05;11.15;;;;;;;14.37;100;95523.83;;;;
2021/09/29 05:43:33;;;;;;;14.05;11.15;;;;;;;14.37;100;95523.83;;;;
2021/09/29 05:44:36;;;;;;;14.05;11.15;;;;;;;14.37;100;95523.83;;;;
2021/09/29 05:45:36;;;;;;;14.05;11.15;;;;;;;14.37;100;95523.83;;;;
2021/09/29 05:46:37;;;;;;;14.05;11.15;;;;;;;14.37;100;95523.83;;;;
2021/09/29 05:47:37;;;;;;;14.05;11.15;;;;;;;14.37;100;95523.83;;;;
2021/09/29 05:48:38;;;;;;;11;8.85;;;;;;;14.37;100;95534.13;;;;
2021/09/29 05:49:39;;;;;;;11;8.85;;;;;;;14.37;100;95534.13;;;;
2021/09/29 05:50:39;;;;;;;11;8.85;;;;;;;14.37;100;95534.13;;;;
2021/09/29 05:51:44;;;;;;;11;8.85;;;;;;;14.37;100;95534.13;;;;
2021/09/29 05:52:45;;;;;;;11;8.85;;;;;;;14.37;100;95534.13;;;;
2021/09/29 05:53:46;;;;;;;11;8.85;;;;;;;14.37;100;95534.13;;;;
2021/09/29 05:54:47;;;;;;;11;8.85;;;;;;;14.37;100;95534.13;;;;